Holabird, South Dakota
Current Conditions -  °F | °C
As of 5:53 PM on Thursday 27 Nov 2014 (Local Time) from KPIR Reporting Station
Overcast Overcast  
Wind Chill: 11°   Ceiling: 10000
Heat Index: 24°   Visibility: 10mi
Dew Point: 16°   Wind: 16mph
Humidity: 71%   Direction: 130°SE
Pressure: 29.97"   Gusts: NA
Location:  44.53°N, 99.6°W
Report Text: KPIR 272353Z AUTO 13014KT 10SM OVC100 M04/M09 A2997 RMK AO2 SLP176 T10441089 11044 21072 58029
Loading
Personal Weather Stations






























Interactive Weather Map New forecast layout! Learn more

10-Day Weather Forecast

Advertisements
Track Severe Weather on mobile